createdAt,value
2023-01-27T00:02:01.969Z,74.89
2023-01-27T00:04:32.277Z,74.68
2023-01-27T00:07:02.510Z,75.21
2023-01-27T00:09:32.663Z,75.26
2023-01-27T00:12:21.295Z,75.33
2023-01-27T00:14:51.449Z,75.50
2023-01-27T00:17:21.683Z,75.26
2023-01-27T00:19:51.759Z,75.03
2023-01-27T00:22:40.423Z,75.01
2023-01-27T00:25:10.705Z,74.82
2023-01-27T00:27:40.837Z,75.14
2023-01-27T00:30:12.602Z,74.96
2023-01-27T00:33:01.700Z,74.88
2023-01-27T00:35:32.371Z,74.86
2023-01-27T00:38:02.459Z,75.07
2023-01-27T00:40:32.574Z,74.69
2023-01-27T00:43:02.713Z,74.72
2023-01-27T00:45:51.402Z,74.30
2023-01-27T00:48:21.482Z,75.02
2023-01-27T00:50:51.600Z,74.71
2023-01-27T00:53:21.706Z,74.31
2023-01-27T00:55:52.130Z,74.90
2023-01-27T00:58:22.749Z,74.77
2023-01-27T01:00:54.373Z,74.71
2023-01-27T01:03:24.558Z,74.79
2023-01-27T01:05:54.721Z,75.04
2023-01-27T01:08:25.520Z,74.82
2023-01-27T01:10:55.729Z,74.91
2023-01-27T01:13:27.895Z,75.03
2023-01-27T01:15:58.397Z,74.50
2023-01-27T01:18:28.607Z,75.40
2023-01-27T01:20:58.795Z,74.62
2023-01-27T01:23:28.986Z,74.75
2023-01-27T01:25:59.501Z,75.57
2023-01-27T01:28:29.800Z,74.97
2023-01-27T01:31:10.789Z,75.12
2023-01-27T01:33:40.976Z,74.39
2023-01-27T01:36:17.817Z,74.91
2023-01-27T01:38:48.517Z,75.39
2023-01-27T01:41:20.993Z,74.81
2023-01-27T01:43:52.126Z,75.15
2023-01-27T01:46:22.646Z,75.19
2023-01-27T01:49:00.121Z,75.19
2023-01-27T01:51:35.363Z,74.64
2023-01-27T01:54:14.146Z,74.68
2023-01-27T01:56:50.094Z,74.87
2023-01-27T01:59:28.794Z,74.98
2023-01-27T02:02:05.937Z,74.97
2023-01-27T02:04:47.464Z,75.53
2023-01-27T02:07:26.637Z,75.05
2023-01-27T02:09:58.667Z,74.44
2023-01-27T02:12:28.833Z,74.76
2023-01-27T02:14:59.236Z,74.69
2023-01-27T02:17:29.664Z,74.91
2023-01-27T02:20:11.886Z,74.99
2023-01-27T02:23:12.136Z,75.70
2023-01-27T02:25:47.856Z,75.20
2023-01-27T02:28:18.188Z,74.73
2023-01-27T02:30:48.559Z,75.15
2023-01-27T02:33:18.800Z,74.94
2023-01-27T02:36:06.476Z,74.83
2023-01-27T02:38:41.223Z,75.49
2023-01-27T02:41:29.685Z,75.70
2023-01-27T02:44:00.443Z,75.31
2023-01-27T02:46:31.160Z,75.41
2023-01-27T02:49:01.539Z,75.49
2023-01-27T02:51:32.022Z,75.19
2023-01-27T02:54:02.720Z,75.30
2023-01-27T02:56:33.113Z,75.55
2023-01-27T02:59:03.331Z,75.50
2023-01-27T03:01:33.752Z,75.41
2023-01-27T03:04:04.015Z,75.64
2023-01-27T03:06:34.189Z,75.62
2023-01-27T03:09:06.216Z,75.69
2023-01-27T03:11:55.097Z,75.41
2023-01-27T03:14:43.695Z,75.41
2023-01-27T03:17:32.318Z,75.38
2023-01-27T03:20:02.498Z,75.10
2023-01-27T03:22:32.629Z,75.34
2023-01-27T03:25:02.847Z,75.35
2023-01-27T03:27:32.998Z,74.88
2023-01-27T03:30:04.102Z,75.62
2023-01-27T03:32:34.483Z,75.46
2023-01-27T03:35:05.508Z,75.58
2023-01-27T03:37:54.123Z,75.21
2023-01-27T03:40:42.966Z,75.23
2023-01-27T03:43:31.682Z,75.41
2023-01-27T03:46:20.016Z,75.53
2023-01-27T03:48:52.567Z,75.87
2023-01-27T03:51:24.863Z,75.67
2023-01-27T03:53:55.118Z,75.31
2023-01-27T03:56:25.340Z,75.72
2023-01-27T03:58:55.486Z,75.71
2023-01-27T04:01:25.606Z,75.91
2023-01-27T04:04:14.197Z,75.95
2023-01-27T04:07:01.147Z,75.28
2023-01-27T04:09:34.179Z,75.70
2023-01-27T04:12:06.100Z,75.20
2023-01-27T04:14:46.477Z,75.47
2023-01-27T04:17:18.693Z,75.31
2023-01-27T04:19:49.225Z,75.45
2023-01-27T04:22:19.411Z,75.59
2023-01-27T04:24:50.396Z,75.50
2023-01-27T04:27:20.568Z,75.40
2023-01-27T04:29:50.811Z,75.62
2023-01-27T04:32:21.046Z,75.68
2023-01-27T04:34:51.219Z,75.59
2023-01-27T04:37:21.416Z,76.12
2023-01-27T04:39:51.528Z,75.82
2023-01-27T04:42:21.865Z,75.65
2023-01-27T04:44:52.049Z,75.73
2023-01-27T04:47:22.877Z,75.88
2023-01-27T04:49:53.028Z,76.08
2023-01-27T04:52:23.211Z,75.99
2023-01-27T04:54:53.350Z,76.21
2023-01-27T04:57:23.525Z,75.42
2023-01-27T04:59:53.587Z,75.92
2023-01-27T05:02:23.787Z,76.20
2023-01-27T05:04:54.045Z,75.89
2023-01-27T05:07:24.627Z,76.03
2023-01-27T05:09:54.839Z,75.77
2023-01-27T05:12:25.408Z,76.11
2023-01-27T05:14:55.644Z,76.21
2023-01-27T05:17:28.038Z,75.77
2023-01-27T05:19:58.173Z,76.27
2023-01-27T05:22:28.318Z,75.87
2023-01-27T05:24:58.542Z,75.93
2023-01-27T05:27:28.940Z,75.95
2023-01-27T05:29:59.096Z,76.21
2023-01-27T05:32:29.143Z,75.86
2023-01-27T05:34:59.353Z,75.78
2023-01-27T05:37:29.922Z,76.38
2023-01-27T05:40:00.111Z,75.79
2023-01-27T05:42:30.253Z,75.62
2023-01-27T05:45:00.469Z,75.96
2023-01-27T05:47:30.573Z,76.41
2023-01-27T05:50:00.716Z,75.92
2023-01-27T05:52:30.970Z,76.13
2023-01-27T05:55:01.089Z,76.25
2023-01-27T05:57:31.156Z,76.35
2023-01-27T06:00:01.301Z,76.25
2023-01-27T06:02:31.387Z,75.97
2023-01-27T06:05:01.670Z,76.19
2023-01-27T06:07:31.783Z,76.44
2023-01-27T06:10:01.886Z,76.59
2023-01-27T06:12:32.026Z,75.96
2023-01-27T06:15:02.973Z,76.40
2023-01-27T06:17:33.137Z,76.26
2023-01-27T06:20:03.312Z,76.34
2023-01-27T06:22:33.389Z,76.34
2023-01-27T06:25:03.570Z,76.65
2023-01-27T06:27:33.728Z,76.42
2023-01-27T06:30:04.181Z,76.12
2023-01-27T06:32:36.968Z,76.48
2023-01-27T06:35:07.648Z,76.39
2023-01-27T06:37:38.006Z,76.53
2023-01-27T06:40:08.718Z,76.89
2023-01-27T06:42:42.616Z,76.37
2023-01-27T06:45:13.692Z,76.85
2023-01-27T06:47:43.914Z,76.39
2023-01-27T06:50:14.379Z,76.75
2023-01-27T06:52:45.059Z,76.65
2023-01-27T06:55:15.352Z,76.67
2023-01-27T06:57:49.340Z,76.79
2023-01-27T07:00:20.031Z,76.38
2023-01-27T07:02:50.909Z,76.87
2023-01-27T07:05:21.133Z,76.46
2023-01-27T07:07:51.391Z,76.28
2023-01-27T07:10:21.560Z,76.64
2023-01-27T07:12:51.785Z,76.71
2023-01-27T07:15:21.914Z,76.72
2023-01-27T07:17:52.048Z,76.36
2023-01-27T07:20:22.289Z,76.93
2023-01-27T07:22:52.464Z,76.64
2023-01-27T07:25:22.702Z,76.62
2023-01-27T07:27:53.704Z,76.46
2023-01-27T07:30:23.932Z,76.85
2023-01-27T07:32:55.615Z,76.61
2023-01-27T07:35:25.859Z,76.97
2023-01-27T07:37:57.615Z,76.91
2023-01-27T07:40:27.755Z,76.27
2023-01-27T07:43:01.825Z,76.44
2023-01-27T07:45:31.981Z,76.37
2023-01-27T07:48:04.875Z,76.40
2023-01-27T07:50:36.507Z,76.86
2023-01-27T07:53:06.731Z,76.16
2023-01-27T07:55:36.909Z,76.77
2023-01-27T07:58:07.654Z,76.26
2023-01-27T08:00:38.162Z,76.52
2023-01-27T08:03:19.686Z,76.85
2023-01-27T08:05:50.499Z,76.14
2023-01-27T08:08:20.613Z,76.78
2023-01-27T08:10:51.646Z,76.33
2023-01-27T08:13:21.776Z,76.27
2023-01-27T08:16:02.586Z,76.77
2023-01-27T08:18:36.407Z,76.58
2023-01-27T08:21:10.071Z,76.02
2023-01-27T08:23:40.366Z,76.25
2023-01-27T08:26:10.652Z,76.25
2023-01-27T08:28:41.270Z,76.03
2023-01-27T08:31:14.412Z,76.11
2023-01-27T08:33:49.823Z,76.06
2023-01-27T08:36:22.045Z,76.40
2023-01-27T08:38:52.286Z,76.05
2023-01-27T08:41:25.948Z,76.30
2023-01-27T08:43:56.154Z,76.53
2023-01-27T08:46:27.111Z,76.28
2023-01-27T08:48:58.000Z,75.52
2023-01-27T08:51:28.927Z,75.66
2023-01-27T08:53:59.197Z,76.08
2023-01-27T08:56:30.959Z,75.76
2023-01-27T08:59:01.302Z,76.08
2023-01-27T09:01:31.606Z,75.28
2023-01-27T09:04:01.820Z,75.70
2023-01-27T09:06:32.013Z,75.92
2023-01-27T09:09:12.278Z,75.47
2023-01-27T09:11:45.411Z,74.82
2023-01-27T09:14:15.520Z,74.61
2023-01-27T09:16:45.755Z,75.22
2023-01-27T09:19:16.538Z,74.81
2023-01-27T09:21:46.655Z,74.45
2023-01-27T09:24:18.066Z,74.39
2023-01-27T09:26:48.738Z,74.50
2023-01-27T09:29:18.936Z,74.26
2023-01-27T09:31:49.298Z,74.79
2023-01-27T09:34:19.819Z,74.26
2023-01-27T09:36:55.136Z,74.47
2023-01-27T09:39:26.835Z,74.33
2023-01-27T09:42:18.400Z,74.54
2023-01-27T09:45:19.393Z,73.75
2023-01-27T09:48:04.750Z,73.70
2023-01-27T09:50:48.585Z,74.14
2023-01-27T09:53:45.983Z,73.39
2023-01-27T09:56:27.022Z,73.33
2023-01-27T09:59:26.877Z,73.00
2023-01-27T10:02:08.442Z,73.01
2023-01-27T10:04:44.643Z,73.25
2023-01-27T10:07:26.957Z,72.72
2023-01-27T10:10:03.649Z,72.79
2023-01-27T10:12:54.847Z,72.60
2023-01-27T10:15:40.136Z,72.60
2023-01-27T10:18:36.812Z,72.63
2023-01-27T10:21:11.835Z,71.65
2023-01-27T10:24:06.519Z,72.41
2023-01-27T10:26:55.953Z,72.10
2023-01-27T10:29:43.567Z,71.79
2023-01-27T10:32:39.079Z,71.91
2023-01-27T10:35:18.462Z,72.16
2023-01-27T10:38:06.224Z,71.46
2023-01-27T10:40:50.473Z,71.43
2023-01-27T10:43:43.396Z,70.87
2023-01-27T10:47:07.745Z,70.32
2023-01-27T10:49:45.678Z,70.78
2023-01-27T10:52:21.898Z,71.28
2023-01-27T10:54:56.347Z,71.27
2023-01-27T10:57:35.643Z,70.89
2023-01-27T11:00:57.881Z,69.45
2023-01-27T11:03:41.430Z,69.85
2023-01-27T11:06:20.457Z,69.52
2023-01-27T11:09:05.481Z,69.80
2023-01-27T11:11:47.034Z,69.88
2023-01-27T11:14:27.984Z,70.23
2023-01-27T11:17:20.376Z,69.09
2023-01-27T11:20:28.651Z,68.94
2023-01-27T11:23:29.606Z,67.93
2023-01-27T11:26:23.634Z,68.80
2023-01-27T11:29:09.058Z,69.14
2023-01-27T11:31:58.237Z,68.87
2023-01-27T11:34:57.729Z,69.01
2023-01-27T11:37:35.838Z,68.91
2023-01-27T11:40:23.778Z,67.94
2023-01-27T11:42:57.157Z,68.71
2023-01-27T11:45:30.728Z,68.48
2023-01-27T11:48:02.729Z,67.23
2023-01-27T11:50:36.694Z,64.74
2023-01-27T11:53:25.645Z,62.43
2023-01-27T11:56:04.143Z,58.84
2023-01-27T11:58:45.512Z,59.07
2023-01-27T12:01:24.207Z,57.79
2023-01-27T12:04:04.693Z,58.61
2023-01-27T12:06:38.997Z,58.35
2023-01-27T12:09:31.408Z,54.36
2023-01-27T12:12:22.855Z,55.46
2023-01-27T12:14:55.379Z,60.62
2023-01-27T12:17:45.133Z,54.75
2023-01-27T12:20:45.289Z,55.63
2023-01-27T12:23:27.270Z,56.44
2023-01-27T12:26:03.515Z,58.47
2023-01-27T12:28:38.171Z,59.84
2023-01-27T12:31:16.501Z,57.40
2023-01-27T12:33:57.020Z,57.94
2023-01-27T12:36:30.180Z,57.23
2023-01-27T12:39:01.848Z,56.54
2023-01-27T12:41:33.447Z,57.61
2023-01-27T12:44:16.790Z,52.35
2023-01-27T12:47:21.818Z,49.48
2023-01-27T12:49:52.088Z,55.66
2023-01-27T12:52:22.396Z,54.39
2023-01-27T12:54:54.306Z,54.76
2023-01-27T12:57:24.751Z,54.59
2023-01-27T12:59:57.450Z,52.57
2023-01-27T13:02:32.712Z,52.11
2023-01-27T13:05:08.347Z,52.38
2023-01-27T13:07:45.085Z,53.01
2023-01-27T13:10:22.571Z,48.60
2023-01-27T13:12:55.702Z,55.59
2023-01-27T13:15:28.742Z,55.56
2023-01-27T13:18:01.434Z,55.95
2023-01-27T13:20:46.045Z,54.64
2023-01-27T13:23:21.013Z,56.45
2023-01-27T13:26:13.364Z,55.56
2023-01-27T13:28:53.215Z,56.29
2023-01-27T13:31:43.460Z,56.38
2023-01-27T13:34:45.678Z,56.03
2023-01-27T13:37:28.525Z,57.87
2023-01-27T13:40:03.503Z,58.23
2023-01-27T13:42:52.108Z,59.12
2023-01-27T13:45:29.493Z,58.39
2023-01-27T13:48:04.552Z,58.84
2023-01-27T13:51:08.910Z,57.45
2023-01-27T13:53:39.957Z,59.00
2023-01-27T13:56:16.340Z,58.50
2023-01-27T13:59:20.153Z,57.96
2023-01-27T14:02:02.928Z,59.20
2023-01-27T14:04:39.151Z,60.17
2023-01-27T14:07:25.790Z,60.04
2023-01-27T14:10:14.387Z,59.77
2023-01-27T14:13:12.103Z,58.93
2023-01-27T14:16:17.694Z,58.92
2023-01-27T14:18:55.763Z,60.24
2023-01-27T14:21:44.196Z,60.24
2023-01-27T14:24:49.955Z,60.08
2023-01-27T14:27:29.502Z,60.92
2023-01-27T14:30:05.392Z,61.63
2023-01-27T14:33:12.862Z,60.21
2023-01-27T14:35:47.222Z,61.06
2023-01-27T14:38:54.210Z,60.77
2023-01-27T14:41:46.067Z,60.45
2023-01-27T14:44:38.395Z,61.08
2023-01-27T14:47:31.882Z,60.92
2023-01-27T14:50:14.254Z,61.95
2023-01-27T14:52:52.830Z,61.28
2023-01-27T14:55:36.220Z,60.71
2023-01-27T14:58:12.385Z,61.54
2023-01-27T15:01:19.549Z,61.34
2023-01-27T15:04:17.328Z,61.79
2023-01-27T15:06:56.933Z,62.01
2023-01-27T15:10:03.709Z,62.19
2023-01-27T15:13:15.947Z,61.87
2023-01-27T15:16:00.413Z,62.38
2023-01-27T15:18:53.644Z,61.89
2023-01-27T15:21:48.695Z,61.45
2023-01-27T15:24:46.389Z,61.99
2023-01-27T15:27:16.834Z,62.75
2023-01-27T15:29:47.159Z,62.59
2023-01-27T15:32:21.095Z,62.99
2023-01-27T15:34:54.064Z,63.08
2023-01-27T15:37:30.679Z,62.45
2023-01-27T15:40:16.796Z,63.36
2023-01-27T15:43:01.046Z,63.06
2023-01-27T15:45:32.395Z,62.95
2023-01-27T15:48:06.814Z,62.79
2023-01-27T15:50:39.683Z,62.94
2023-01-27T15:53:17.996Z,62.71
2023-01-27T15:55:54.733Z,62.61
2023-01-27T15:58:53.888Z,63.42
2023-01-27T16:01:27.731Z,63.49
2023-01-27T16:04:10.345Z,63.14
2023-01-27T16:06:54.215Z,62.89
2023-01-27T16:09:27.027Z,63.41
2023-01-27T16:12:03.924Z,62.85
2023-01-27T16:14:40.886Z,62.77
2023-01-27T16:17:18.170Z,62.48
2023-01-27T16:19:53.659Z,62.74
2023-01-27T16:22:26.480Z,63.33
2023-01-27T16:25:04.354Z,63.29
2023-01-27T16:27:44.395Z,62.88
2023-01-27T16:30:19.485Z,63.37
2023-01-27T16:33:04.503Z,62.79
2023-01-27T16:35:48.360Z,62.76
2023-01-27T16:38:31.578Z,62.66
2023-01-27T16:41:09.391Z,63.01
2023-01-27T16:43:45.470Z,62.90
2023-01-27T16:46:40.058Z,62.88
2023-01-27T16:49:33.446Z,63.16
2023-01-27T16:52:05.508Z,63.23
2023-01-27T16:54:40.317Z,63.53
2023-01-27T16:57:42.350Z,62.88
2023-01-27T17:00:25.676Z,62.95
2023-01-27T17:02:59.668Z,63.39
2023-01-27T17:05:30.437Z,63.97
2023-01-27T17:08:04.889Z,62.77
2023-01-27T17:10:35.647Z,63.12
2023-01-27T17:13:06.055Z,63.18
2023-01-27T17:15:38.775Z,63.17
2023-01-27T17:18:11.164Z,63.28
2023-01-27T17:20:46.068Z,63.81
2023-01-27T17:23:33.304Z,63.17
2023-01-27T17:26:15.525Z,62.51
2023-01-27T17:28:47.700Z,62.93
2023-01-27T17:31:21.595Z,62.66
2023-01-27T17:34:01.234Z,62.87
2023-01-27T17:36:31.602Z,63.04
2023-01-27T17:39:01.754Z,63.37
2023-01-27T17:41:38.066Z,62.84
2023-01-27T17:44:13.547Z,63.02
2023-01-27T17:46:43.782Z,63.23
2023-01-27T17:49:18.501Z,63.15
2023-01-27T17:51:58.204Z,63.02
2023-01-27T17:54:34.229Z,63.47
2023-01-27T17:57:25.317Z,63.00
2023-01-27T18:00:07.045Z,62.38
2023-01-27T18:03:02.778Z,62.48
2023-01-27T18:05:34.128Z,63.16
2023-01-27T18:08:05.362Z,63.00
2023-01-27T18:10:35.459Z,63.02
2023-01-27T18:13:27.635Z,63.01
2023-01-27T18:16:14.936Z,63.38
2023-01-27T18:18:46.379Z,62.81
2023-01-27T18:21:27.990Z,62.37
2023-01-27T18:24:00.718Z,63.39
2023-01-27T18:26:40.509Z,62.64
2023-01-27T18:29:22.967Z,62.92
2023-01-27T18:31:59.635Z,62.82
2023-01-27T18:34:32.736Z,62.59
2023-01-27T18:37:08.787Z,63.30
2023-01-27T18:39:40.995Z,63.11
2023-01-27T18:42:15.228Z,63.13
2023-01-27T18:44:45.734Z,62.66
2023-01-27T18:47:18.886Z,62.91
2023-01-27T18:50:18.349Z,62.33
2023-01-27T18:52:50.208Z,62.62
2023-01-27T18:55:29.142Z,62.45
2023-01-27T18:58:00.697Z,62.91
2023-01-27T19:00:50.684Z,62.62
2023-01-27T19:03:30.767Z,62.44
2023-01-27T19:06:01.651Z,62.63
2023-01-27T19:08:31.928Z,62.54
2023-01-27T19:11:02.273Z,62.53
2023-01-27T19:13:32.679Z,62.40
2023-01-27T19:16:02.981Z,62.71
2023-01-27T19:18:35.082Z,62.32
2023-01-27T19:21:05.970Z,63.31
2023-01-27T19:23:36.196Z,62.72
2023-01-27T19:26:14.717Z,62.81
2023-01-27T19:28:52.056Z,62.57
2023-01-27T19:31:22.558Z,62.98
2023-01-27T19:33:55.552Z,62.84
2023-01-27T19:36:29.105Z,62.31
2023-01-27T19:39:09.527Z,62.53
2023-01-27T19:41:39.843Z,62.05
2023-01-27T19:44:10.807Z,62.41
2023-01-27T19:46:42.203Z,61.76
2023-01-27T19:49:17.407Z,62.07
2023-01-27T19:51:47.714Z,61.94
2023-01-27T19:54:19.480Z,62.40
2023-01-27T19:56:50.914Z,62.29
2023-01-27T19:59:21.009Z,62.47
2023-01-27T20:01:51.165Z,62.90
2023-01-27T20:04:21.311Z,62.43
2023-01-27T20:06:51.488Z,62.58
2023-01-27T20:09:21.600Z,62.54
2023-01-27T20:11:51.752Z,62.28
2023-01-27T20:14:26.247Z,62.35
2023-01-27T20:16:56.383Z,62.71
2023-01-27T20:19:26.541Z,62.47
2023-01-27T20:21:59.132Z,62.77
2023-01-27T20:24:29.529Z,62.66
2023-01-27T20:26:59.694Z,62.56
2023-01-27T20:29:30.264Z,62.46
2023-01-27T20:32:00.621Z,62.39
2023-01-27T20:34:30.930Z,62.44
2023-01-27T20:37:00.995Z,62.91
2023-01-27T20:39:31.747Z,62.30
2023-01-27T20:42:02.001Z,62.31
2023-01-27T20:44:32.120Z,62.69
2023-01-27T20:47:02.201Z,62.51
2023-01-27T20:49:34.360Z,63.11
2023-01-27T20:52:04.525Z,62.84
2023-01-27T20:54:34.583Z,62.16
2023-01-27T20:57:04.951Z,62.32
2023-01-27T20:59:35.058Z,62.61
2023-01-27T21:02:05.362Z,62.59
2023-01-27T21:04:35.483Z,62.27
2023-01-27T21:07:05.978Z,61.96
2023-01-27T21:09:36.187Z,61.77
2023-01-27T21:12:06.618Z,61.58
2023-01-27T21:14:39.951Z,62.29
2023-01-27T21:17:11.889Z,61.71
2023-01-27T21:19:42.075Z,61.94
2023-01-27T21:22:12.170Z,61.99
2023-01-27T21:24:45.086Z,61.41
2023-01-27T21:27:15.272Z,61.86
2023-01-27T21:29:48.226Z,62.13
2023-01-27T21:32:18.438Z,62.07
2023-01-27T21:34:48.612Z,62.28
2023-01-27T21:37:18.741Z,62.55
2023-01-27T21:39:48.836Z,62.23
2023-01-27T21:42:18.957Z,62.32
2023-01-27T21:45:07.654Z,62.50
2023-01-27T21:47:37.758Z,62.49
2023-01-27T21:50:11.064Z,62.20
2023-01-27T21:52:46.793Z,61.95
2023-01-27T21:55:22.653Z,62.26
2023-01-27T21:57:53.871Z,62.40
2023-01-27T22:00:26.921Z,62.27
2023-01-27T22:03:01.869Z,61.31
2023-01-27T22:05:33.747Z,61.13
2023-01-27T22:08:06.509Z,61.85
2023-01-27T22:10:37.555Z,62.13
2023-01-27T22:13:09.860Z,61.98
2023-01-27T22:15:40.046Z,61.55
2023-01-27T22:18:10.122Z,62.16
2023-01-27T22:20:40.211Z,61.93
2023-01-27T22:23:10.272Z,62.78
2023-01-27T22:25:40.315Z,62.55
2023-01-27T22:28:10.471Z,62.80
2023-01-27T22:30:40.599Z,62.15
2023-01-27T22:33:12.007Z,62.57
2023-01-27T22:35:42.268Z,62.35
2023-01-27T22:38:12.396Z,62.80
2023-01-27T22:40:42.496Z,62.50
2023-01-27T22:43:12.706Z,62.58
2023-01-27T22:45:43.877Z,62.35
2023-01-27T22:48:14.596Z,62.87
2023-01-27T22:50:44.822Z,62.40
2023-01-27T22:53:15.034Z,62.57
2023-01-27T22:55:45.219Z,62.14
2023-01-27T22:58:15.270Z,62.77
2023-01-27T23:00:45.387Z,62.44
2023-01-27T23:03:15.570Z,62.14
2023-01-27T23:05:46.264Z,62.39
2023-01-27T23:08:20.681Z,62.36
2023-01-27T23:10:51.248Z,62.36
2023-01-27T23:13:21.419Z,62.07
2023-01-27T23:15:51.746Z,61.68
2023-01-27T23:18:23.714Z,62.25
2023-01-27T23:20:53.952Z,62.17
2023-01-27T23:23:24.145Z,62.30
2023-01-27T23:25:54.459Z,61.69
2023-01-27T23:28:24.961Z,61.57
2023-01-27T23:30:55.186Z,61.71
2023-01-27T23:33:27.516Z,61.81
2023-01-27T23:35:57.979Z,61.60
2023-01-27T23:38:33.571Z,61.16
2023-01-27T23:41:06.708Z,61.23
2023-01-27T23:43:36.788Z,61.46
2023-01-27T23:46:07.049Z,61.43
2023-01-27T23:48:37.263Z,61.82
2023-01-27T23:51:09.704Z,60.56
2023-01-27T23:53:41.527Z,61.33
2023-01-27T23:56:17.601Z,61.04
2023-01-27T23:58:48.359Z,61.07
